Gerstetten Airport


Codes: EDPT/
Name: Gerstetten Airport
City: Gerstetten
Country: Germany
Elevation: 1975 ft.

Photos at Gerstetten Airport


   Photos courtesy of SpottingLog. You can add your own sightings and photos by signing up for a free trial today.



No photos found.

Weather at Gerstetten Airport


Time (UTC)DescriptionTempratureWindCloud coverageVisibilityPressureHumidity
16-Jun-2024 12:00Light Rain18°C9 mph, S78%10000m1011hPa65%
16-Jun-2024 15:00Light Rain18°C7 mph, S65%10000m1011hPa69%
16-Jun-2024 18:00Light Rain15°C11 mph, NW61%10000m1012hPa84%
16-Jun-2024 21:00Overcast Clouds12°C4 mph, SW92%10000m1014hPa89%
17-Jun-2024 00:00Light Rain12°C4 mph, SW96%10000m1015hPa93%
17-Jun-2024 03:00Light Rain12°C4 mph, S100%10000m1015hPa94%
17-Jun-2024 06:00Overcast Clouds14°C4 mph, S100%10000m1015hPa89%
17-Jun-2024 09:00Overcast Clouds19°C7 mph, SW99%10000m1016hPa74%
17-Jun-2024 12:00Light Rain18°C7 mph, NW96%10000m1016hPa83%
17-Jun-2024 15:00Light Rain16°C4 mph, NW100%10000m1017hPa91%
17-Jun-2024 18:00Light Rain15°C4 mph, S100%10000m1017hPa92%
17-Jun-2024 21:00Broken Clouds13°C2 mph, S79%10000m1018hPa96%
18-Jun-2024 00:00Broken Clouds12°C2 mph, S59%10000m1017hPa95%
18-Jun-2024 03:00Overcast Clouds12°C2 mph, SE91%10000m1017hPa95%
18-Jun-2024 06:00Broken Clouds16°C4 mph, SE69%10000m1016hPa90%
18-Jun-2024 09:00Overcast Clouds21°C4 mph, S94%10000m1016hPa76%
18-Jun-2024 12:00Overcast Clouds24°C4 mph, SE95%10000m1015hPa67%
18-Jun-2024 15:00Overcast Clouds24°C4 mph, S100%10000m1014hPa69%
18-Jun-2024 18:00Overcast Clouds22°C4 mph, SE100%10000m1013hPa83%
18-Jun-2024 21:00Light Rain18°C4 mph, SW85%10000m1014hPa88%
19-Jun-2024 00:00Light Rain16°C16 mph, W90%5187m1017hPa92%
19-Jun-2024 03:00Light Rain14°C7 mph, SW100%10000m1018hPa94%
19-Jun-2024 06:00Overcast Clouds16°C7 mph, NW100%10000m1019hPa92%
19-Jun-2024 09:00Overcast Clouds19°C9 mph, NW95%10000m1020hPa81%
19-Jun-2024 12:00Light Rain21°C9 mph, NW90%10000m1021hPa71%
19-Jun-2024 15:00Scattered Clouds21°C7 mph, N47%10000m1021hPa72%
19-Jun-2024 18:00Scattered Clouds19°C4 mph, NE26%10000m1022hPa85%
19-Jun-2024 21:00Clear Sky14°C4 mph, E0%10000m1023hPa91%
20-Jun-2024 00:00Clear Sky13°C4 mph, E0%10000m1022hPa92%
20-Jun-2024 03:00Clear Sky11°C4 mph, E2%10000m1021hPa90%
20-Jun-2024 06:00Clear Sky15°C7 mph, E5%10000m1021hPa80%
20-Jun-2024 09:00Scattered Clouds20°C7 mph, SE26%10000m1020hPa77%
20-Jun-2024 12:00Broken Clouds24°C7 mph, SE56%10000m1018hPa70%
20-Jun-2024 15:00Broken Clouds26°C4 mph, SE70%10000m1016hPa67%
20-Jun-2024 18:00Broken Clouds23°C9 mph, SE75%10000m1015hPa86%
20-Jun-2024 21:00Overcast Clouds22°C13 mph, SE100%10000m1014hPa64%
21-Jun-2024 00:00Overcast Clouds18°C7 mph, S100%10000m1014hPa75%
21-Jun-2024 03:00Overcast Clouds19°C7 mph, NW100%10000m1013hPa70%
21-Jun-2024 06:00Overcast Clouds21°C4 mph, NW100%10000m1014hPa79%
21-Jun-2024 09:00Light Rain20°C7 mph, W98%10000m1016hPa83%